createdAt,value
2018-08-09T00:02:03.464Z,20.30
2018-08-09T00:04:32.293Z,20.30
2018-08-09T00:07:00.921Z,20.30
2018-08-09T00:09:29.542Z,20.20
2018-08-09T00:11:58.213Z,20.20
2018-08-09T00:14:26.922Z,20.10
2018-08-09T00:16:55.841Z,20.20
2018-08-09T00:19:24.540Z,20.10
2018-08-09T00:21:53.185Z,20.10
2018-08-09T00:24:21.942Z,20.00
2018-08-09T00:26:50.593Z,20.00
2018-08-09T00:29:19.681Z,19.90
2018-08-09T00:31:48.321Z,19.90
2018-08-09T00:34:19.919Z,19.80
2018-08-09T00:36:48.590Z,19.80
2018-08-09T00:39:17.276Z,19.70
2018-08-09T00:41:46.011Z,19.70
2018-08-09T00:44:14.646Z,19.70
2018-08-09T00:46:43.314Z,19.60
2018-08-09T00:49:11.979Z,19.60
2018-08-09T00:51:40.709Z,19.60
2018-08-09T00:54:09.361Z,19.50
2018-08-09T00:56:38.010Z,19.50
2018-08-09T00:59:07.268Z,19.50
2018-08-09T01:01:35.961Z,19.50
2018-08-09T01:04:04.637Z,19.50
2018-08-09T01:06:33.302Z,19.50
2018-08-09T01:09:06.928Z,19.50
2018-08-09T01:11:36.499Z,19.40
2018-08-09T01:14:05.312Z,19.30
2018-08-09T01:16:33.971Z,19.30
2018-08-09T01:19:02.661Z,19.30
2018-08-09T01:21:31.545Z,19.30
2018-08-09T01:24:00.589Z,19.30
2018-08-09T01:26:29.329Z,19.20
2018-08-09T01:28:58.028Z,19.20
2018-08-09T01:31:33.716Z,19.10
2018-08-09T01:34:03.881Z,19.10
2018-08-09T01:36:33.321Z,19.10
2018-08-09T01:39:02.352Z,19.10
2018-08-09T01:41:30.968Z,19.10
2018-08-09T01:44:03.558Z,19.10
2018-08-09T01:46:32.429Z,19.00
2018-08-09T01:49:01.579Z,19.00
2018-08-09T01:51:30.802Z,19.00
2018-08-09T01:53:59.479Z,19.00
2018-08-09T01:56:28.170Z,19.00
2018-08-09T01:58:56.845Z,19.10
2018-08-09T02:01:25.629Z,19.00
2018-08-09T02:03:54.290Z,19.00
2018-08-09T02:06:22.985Z,19.00
2018-08-09T02:08:51.652Z,18.90
2018-08-09T02:11:20.319Z,18.90
2018-08-09T02:13:49.094Z,18.90
2018-08-09T02:16:17.770Z,18.80
2018-08-09T02:18:46.423Z,18.80
2018-08-09T02:21:15.081Z,18.70
2018-08-09T02:23:43.705Z,18.70
2018-08-09T02:26:12.426Z,18.70
2018-08-09T02:28:41.077Z,18.60
2018-08-09T02:31:09.765Z,18.50
2018-08-09T02:33:38.453Z,18.50
2018-08-09T02:36:07.109Z,18.40
2018-08-09T02:38:35.797Z,18.40
2018-08-09T02:41:04.437Z,18.40
2018-08-09T02:43:33.252Z,18.40
2018-08-09T02:46:02.429Z,18.50
2018-08-09T02:48:31.102Z,18.50
2018-08-09T02:50:59.797Z,18.50
2018-08-09T02:53:28.451Z,18.50
2018-08-09T02:55:57.114Z,18.40
2018-08-09T02:58:25.796Z,18.40
2018-08-09T03:00:54.464Z,18.40
2018-08-09T03:03:23.094Z,18.30
2018-08-09T03:05:51.775Z,18.20
2018-08-09T03:08:20.414Z,18.20
2018-08-09T03:10:49.097Z,18.10
2018-08-09T03:13:17.761Z,18.10
2018-08-09T03:15:46.465Z,18.10
2018-08-09T03:18:15.088Z,18.00
2018-08-09T03:20:43.776Z,18.00
2018-08-09T03:23:12.408Z,18.00
2018-08-09T03:25:41.138Z,18.00
2018-08-09T03:28:09.776Z,18.00
2018-08-09T03:30:38.454Z,18.10
2018-08-09T03:33:07.125Z,18.10
2018-08-09T03:35:35.777Z,18.00
2018-08-09T03:38:04.411Z,18.00
2018-08-09T03:40:33.090Z,18.00
2018-08-09T03:43:01.977Z,18.00
2018-08-09T03:45:30.641Z,18.00
2018-08-09T03:47:59.272Z,17.90
2018-08-09T03:50:28.122Z,17.90
2018-08-09T03:52:56.773Z,17.90
2018-08-09T03:55:25.516Z,17.90
2018-08-09T03:57:54.453Z,17.80
2018-08-09T04:00:23.129Z,17.80
2018-08-09T04:02:51.796Z,17.80
2018-08-09T04:05:20.484Z,17.70
2018-08-09T04:07:49.372Z,17.70
2018-08-09T04:10:18.026Z,17.70
2018-08-09T04:12:46.643Z,17.70
2018-08-09T04:15:15.321Z,17.70
2018-08-09T04:17:43.960Z,17.70
2018-08-09T04:20:12.786Z,17.70
2018-08-09T04:22:41.385Z,17.70
2018-08-09T04:25:10.885Z,17.70
2018-08-09T04:27:39.590Z,17.80
2018-08-09T04:30:08.261Z,17.80
2018-08-09T04:32:38.788Z,17.80
2018-08-09T04:35:07.417Z,17.90
2018-08-09T04:37:36.056Z,17.90
2018-08-09T04:40:04.836Z,18.00
2018-08-09T04:42:33.494Z,18.10
2018-08-09T04:45:02.298Z,18.10
2018-08-09T04:47:31.000Z,18.10
2018-08-09T04:49:59.609Z,18.20
2018-08-09T04:52:28.305Z,18.20
2018-08-09T04:54:56.912Z,18.30
2018-08-09T04:57:25.594Z,18.30
2018-08-09T04:59:54.249Z,18.30
2018-08-09T05:02:22.905Z,18.30
2018-08-09T05:04:51.734Z,18.40
2018-08-09T05:07:20.382Z,18.40
2018-08-09T05:09:49.369Z,18.40
2018-08-09T05:12:18.006Z,18.50
2018-08-09T05:14:46.674Z,18.50
2018-08-09T05:17:15.334Z,18.60
2018-08-09T05:19:43.964Z,18.60
2018-08-09T05:22:12.617Z,18.60
2018-08-09T05:24:41.253Z,18.70
2018-08-09T05:27:09.884Z,18.70
2018-08-09T05:29:38.563Z,18.80
2018-08-09T05:32:07.242Z,18.90
2018-08-09T05:34:35.897Z,19.00
2018-08-09T05:37:04.542Z,19.10
2018-08-09T05:39:33.205Z,19.20
2018-08-09T05:42:01.882Z,19.40
2018-08-09T05:44:30.545Z,19.40
2018-08-09T05:46:59.571Z,19.60
2018-08-09T05:49:28.183Z,19.70
2018-08-09T05:51:56.868Z,19.70
2018-08-09T05:54:25.630Z,19.80
2018-08-09T05:56:54.295Z,20.00
2018-08-09T05:59:23.101Z,20.00
2018-08-09T06:01:51.733Z,20.10
2018-08-09T06:04:20.374Z,20.30
2018-08-09T06:06:49.396Z,20.40
2018-08-09T06:09:18.052Z,20.50
2018-08-09T06:11:46.685Z,20.60
2018-08-09T06:14:15.333Z,20.80
2018-08-09T06:16:43.982Z,20.90
2018-08-09T06:19:12.633Z,21.00
2018-08-09T06:21:41.324Z,21.10
2018-08-09T06:24:09.956Z,21.30
2018-08-09T06:26:38.593Z,21.50
2018-08-09T06:29:07.277Z,21.60
2018-08-09T06:31:35.894Z,21.70
2018-08-09T06:34:11.669Z,21.90
2018-08-09T06:36:40.589Z,22.00
2018-08-09T06:39:09.682Z,22.20
2018-08-09T06:41:39.147Z,22.40
2018-08-09T06:44:08.068Z,22.60
2018-08-09T06:46:36.706Z,22.70
2018-08-09T06:49:05.460Z,22.80
2018-08-09T06:51:34.133Z,22.90
2018-08-09T06:54:03.181Z,23.00
2018-08-09T06:56:31.862Z,23.20
2018-08-09T06:59:00.610Z,23.30
2018-08-09T07:01:29.258Z,23.40
2018-08-09T07:03:57.971Z,23.50
2018-08-09T07:06:26.587Z,23.60
2018-08-09T07:08:55.193Z,23.70
2018-08-09T07:11:24.013Z,23.90
2018-08-09T07:13:52.654Z,24.00
2018-08-09T07:16:21.292Z,24.10
2018-08-09T07:18:49.985Z,24.30
2018-08-09T07:21:18.679Z,24.40
2018-08-09T07:23:47.338Z,24.50
2018-08-09T07:26:16.246Z,24.60
2018-08-09T07:28:44.925Z,24.70
2018-08-09T07:31:13.622Z,24.70
2018-08-09T07:33:42.309Z,24.90
2018-08-09T07:36:10.979Z,25.00
2018-08-09T07:38:39.612Z,25.00
2018-08-09T07:41:08.774Z,25.10
2018-08-09T07:43:37.396Z,25.20
2018-08-09T07:46:06.029Z,25.40
2018-08-09T07:48:35.028Z,25.60
2018-08-09T07:51:03.647Z,25.70
2018-08-09T07:53:32.334Z,25.90
2018-08-09T07:56:01.329Z,26.00
2018-08-09T07:58:29.966Z,26.10
2018-08-09T08:00:58.644Z,26.20
2018-08-09T08:03:32.882Z,26.40
2018-08-09T08:06:01.786Z,26.50
2018-08-09T08:08:30.495Z,26.60
2018-08-09T08:10:59.191Z,26.70
2018-08-09T08:13:27.904Z,26.90
2018-08-09T08:15:56.529Z,27.10
2018-08-09T08:18:25.247Z,27.20
2018-08-09T08:20:53.893Z,27.30
2018-08-09T08:23:22.700Z,27.40
2018-08-09T08:25:51.336Z,27.40
2018-08-09T08:28:20.126Z,27.50
2018-08-09T08:30:48.831Z,27.60
2018-08-09T08:33:17.473Z,27.60
2018-08-09T08:35:46.151Z,27.80
2018-08-09T08:38:14.877Z,27.90
2018-08-09T08:40:43.512Z,27.90
2018-08-09T08:43:12.130Z,28.20
2018-08-09T08:45:40.910Z,28.40
2018-08-09T08:48:09.644Z,28.50
2018-08-09T08:50:38.308Z,28.50
2018-08-09T08:53:08.144Z,28.60
2018-08-09T08:55:36.795Z,28.70
2018-08-09T08:58:05.474Z,28.90
2018-08-09T09:00:34.133Z,28.90
2018-08-09T09:03:02.745Z,29.00
2018-08-09T09:05:31.378Z,29.20
2018-08-09T09:08:00.058Z,29.20
2018-08-09T09:10:28.793Z,29.40
2018-08-09T09:12:57.433Z,29.50
2018-08-09T09:15:26.325Z,29.40
2018-08-09T09:17:54.996Z,29.40
2018-08-09T09:20:25.478Z,29.60
2018-08-09T09:22:54.152Z,29.70
2018-08-09T09:25:25.634Z,29.80
2018-08-09T09:27:54.342Z,29.90
2018-08-09T09:30:23.011Z,30.00
2018-08-09T09:32:51.653Z,30.10
2018-08-09T09:35:20.304Z,30.30
2018-08-09T09:37:48.982Z,30.30
2018-08-09T09:40:17.620Z,30.30
2018-08-09T09:42:46.425Z,30.40
2018-08-09T09:45:15.153Z,30.50
2018-08-09T09:47:43.783Z,30.50
2018-08-09T09:50:12.884Z,30.50
2018-08-09T09:52:41.572Z,30.60
2018-08-09T09:55:10.282Z,30.60
2018-08-09T09:57:39.033Z,30.50
2018-08-09T10:00:12.930Z,30.50
2018-08-09T10:02:41.604Z,30.60
2018-08-09T10:05:10.257Z,30.70
2018-08-09T10:07:39.036Z,30.70
2018-08-09T10:10:08.099Z,30.60
2018-08-09T10:12:36.840Z,30.60
2018-08-09T10:15:05.610Z,30.80
2018-08-09T10:17:34.318Z,30.90
2018-08-09T10:20:03.009Z,31.00
2018-08-09T10:22:31.938Z,31.00
2018-08-09T10:25:00.580Z,31.10
2018-08-09T10:27:29.225Z,31.10
2018-08-09T10:29:57.927Z,31.20
2018-08-09T10:32:26.598Z,31.40
2018-08-09T10:34:55.253Z,31.50
2018-08-09T10:37:24.117Z,31.50
2018-08-09T10:39:52.908Z,31.70
2018-08-09T10:42:21.529Z,31.80
2018-08-09T10:44:50.533Z,31.90
2018-08-09T10:47:19.220Z,32.00
2018-08-09T10:49:47.921Z,32.20
2018-08-09T10:52:19.416Z,32.40
2018-08-09T10:54:48.062Z,32.30
2018-08-09T10:57:16.717Z,32.30
2018-08-09T10:59:45.369Z,32.50
2018-08-09T11:02:14.374Z,32.60
2018-08-09T11:04:42.998Z,32.60
2018-08-09T11:07:11.645Z,32.80
2018-08-09T11:09:40.322Z,33.00
2018-08-09T11:12:08.953Z,32.90
2018-08-09T11:14:37.630Z,33.00
2018-08-09T11:17:06.573Z,33.20
2018-08-09T11:19:35.225Z,33.10
2018-08-09T11:22:03.890Z,33.00
2018-08-09T11:24:32.514Z,32.90
2018-08-09T11:27:02.022Z,33.00
2018-08-09T11:29:30.661Z,32.90
2018-08-09T11:31:59.554Z,33.10
2018-08-09T11:34:28.205Z,33.20
2018-08-09T11:36:56.879Z,33.50
2018-08-09T11:39:25.539Z,33.50
2018-08-09T11:41:54.186Z,33.60
2018-08-09T11:44:22.866Z,33.80
2018-08-09T11:46:51.510Z,34.00
2018-08-09T11:49:20.136Z,34.10
2018-08-09T11:51:49.007Z,34.10
2018-08-09T11:54:17.633Z,34.00
2018-08-09T11:56:46.341Z,34.10
2018-08-09T11:59:14.941Z,34.40
2018-08-09T12:01:43.583Z,34.50
2018-08-09T12:04:12.389Z,34.60
2018-08-09T12:06:41.038Z,34.70
2018-08-09T12:09:10.718Z,34.90
2018-08-09T12:11:39.901Z,35.10
2018-08-09T12:14:09.054Z,35.20
2018-08-09T12:16:37.880Z,35.40
2018-08-09T12:19:07.251Z,35.70
2018-08-09T12:21:35.922Z,35.80
2018-08-09T12:24:04.718Z,35.90
2018-08-09T12:26:33.434Z,36.20
2018-08-09T12:29:02.119Z,36.10
2018-08-09T12:31:30.792Z,35.70
2018-08-09T12:33:59.469Z,35.80
2018-08-09T12:36:28.182Z,36.00
2018-08-09T12:38:56.813Z,36.10
2018-08-09T12:41:25.528Z,36.40
2018-08-09T12:43:54.343Z,36.50
2018-08-09T12:46:22.993Z,36.80
2018-08-09T12:48:51.706Z,36.70
2018-08-09T12:51:20.449Z,36.90
2018-08-09T12:53:49.136Z,37.00
2018-08-09T12:56:17.857Z,37.30
2018-08-09T12:58:46.535Z,37.30
2018-08-09T13:01:15.201Z,37.50
2018-08-09T13:03:43.954Z,37.60
2018-08-09T13:06:12.664Z,37.60
2018-08-09T13:08:41.305Z,37.70
2018-08-09T13:11:10.016Z,38.00
2018-08-09T13:13:38.868Z,38.20
2018-08-09T13:16:07.593Z,38.30
2018-08-09T13:18:36.416Z,38.20
2018-08-09T13:21:05.085Z,38.00
2018-08-09T13:23:33.759Z,38.00
2018-08-09T13:26:02.428Z,38.40
2018-08-09T13:28:31.205Z,38.70
2018-08-09T13:31:00.105Z,39.00
2018-08-09T13:33:28.769Z,39.10
2018-08-09T13:35:57.415Z,39.30
2018-08-09T13:38:26.143Z,39.20
2018-08-09T13:40:54.919Z,38.60
2018-08-09T13:43:23.649Z,38.50
2018-08-09T13:45:52.337Z,38.60
2018-08-09T13:48:20.995Z,39.20
2018-08-09T13:50:49.716Z,39.70
2018-08-09T13:53:18.381Z,39.80
2018-08-09T13:55:47.060Z,40.40
2018-08-09T13:58:15.713Z,40.20
2018-08-09T14:00:44.424Z,40.40
2018-08-09T14:03:13.177Z,40.80
2018-08-09T14:05:41.866Z,41.20
2018-08-09T14:08:10.557Z,41.30
2018-08-09T14:10:39.243Z,41.20
2018-08-09T14:13:08.033Z,41.30
2018-08-09T14:15:36.754Z,41.30
2018-08-09T14:18:05.531Z,40.90
2018-08-09T14:20:34.231Z,40.60
2018-08-09T14:23:03.080Z,40.60
2018-08-09T14:25:31.980Z,40.50
2018-08-09T14:28:00.634Z,40.60
2018-08-09T14:30:29.320Z,40.30
2018-08-09T14:32:58.069Z,39.40
2018-08-09T14:35:26.818Z,39.30
2018-08-09T14:37:55.578Z,39.50
2018-08-09T14:40:24.242Z,40.10
2018-08-09T14:42:53.047Z,40.30
2018-08-09T14:45:21.683Z,40.20
2018-08-09T14:47:50.435Z,40.30
2018-08-09T14:50:19.705Z,40.40
2018-08-09T14:52:48.789Z,39.90
2018-08-09T14:55:17.495Z,40.30
2018-08-09T14:57:46.197Z,40.90
2018-08-09T15:00:17.489Z,40.90
2018-08-09T15:02:46.488Z,41.40
2018-08-09T15:05:15.748Z,41.30
2018-08-09T15:07:44.744Z,41.30
2018-08-09T15:10:14.130Z,41.30
2018-08-09T15:12:42.897Z,41.40
2018-08-09T15:15:12.146Z,41.40
2018-08-09T15:17:40.917Z,40.90
2018-08-09T15:20:11.669Z,40.80
2018-08-09T15:22:40.375Z,40.80
2018-08-09T15:25:10.076Z,41.00
2018-08-09T15:27:38.840Z,41.20
2018-08-09T15:30:12.580Z,41.50
2018-08-09T15:32:41.325Z,41.40
2018-08-09T15:35:09.997Z,40.90
2018-08-09T15:37:38.745Z,39.20
2018-08-09T15:40:08.470Z,38.00
2018-08-09T15:42:37.578Z,37.80
2018-08-09T15:45:07.485Z,36.40
2018-08-09T15:47:36.245Z,35.00
2018-08-09T15:50:06.237Z,34.20
2018-08-09T15:52:34.976Z,33.00
2018-08-09T15:55:03.701Z,32.40
2018-08-09T15:57:32.390Z,31.80
2018-08-09T16:00:01.307Z,31.80
2018-08-09T16:02:29.985Z,31.40
2018-08-09T16:04:58.613Z,30.80
2018-08-09T16:07:27.336Z,30.30
2018-08-09T16:09:56.026Z,30.00
2018-08-09T16:12:24.670Z,29.60
2018-08-09T16:14:53.346Z,29.60
2018-08-09T16:17:22.045Z,29.80
2018-08-09T16:19:50.736Z,29.90
2018-08-09T16:22:19.409Z,30.00
2018-08-09T16:24:48.223Z,30.00
2018-08-09T16:27:16.916Z,29.90
2018-08-09T16:29:45.595Z,29.90
2018-08-09T16:32:14.350Z,30.10
2018-08-09T16:34:43.087Z,30.30
2018-08-09T16:37:11.880Z,30.10
2018-08-09T16:39:40.615Z,30.10
2018-08-09T16:42:09.389Z,30.70
2018-08-09T16:44:38.117Z,30.60
2018-08-09T16:47:06.919Z,30.50
2018-08-09T16:49:35.717Z,30.00
2018-08-09T16:52:04.835Z,29.70
2018-08-09T16:54:33.645Z,30.00
2018-08-09T16:57:02.382Z,30.30
2018-08-09T16:59:31.089Z,30.70
2018-08-09T17:01:59.741Z,30.90
2018-08-09T17:04:28.497Z,31.30
2018-08-09T17:06:57.213Z,31.50
2018-08-09T17:09:26.022Z,31.40
2018-08-09T17:11:54.669Z,31.20
2018-08-09T17:14:23.364Z,30.80
2018-08-09T17:16:52.086Z,30.50
2018-08-09T17:19:20.762Z,30.50
2018-08-09T17:21:49.457Z,30.70
2018-08-09T17:24:18.109Z,30.70
2018-08-09T17:26:46.829Z,30.60
2018-08-09T17:29:15.590Z,30.50
2018-08-09T17:31:44.301Z,30.10
2018-08-09T17:34:12.950Z,29.60
2018-08-09T17:36:41.706Z,29.20
2018-08-09T17:39:11.827Z,28.60
2018-08-09T17:41:40.580Z,28.20
2018-08-09T17:44:10.702Z,27.90
2018-08-09T17:46:39.483Z,27.50
2018-08-09T17:49:08.247Z,27.10
2018-08-09T17:51:36.888Z,27.00
2018-08-09T17:54:05.679Z,26.90
2018-08-09T17:56:34.367Z,26.90
2018-08-09T17:59:03.874Z,26.80
2018-08-09T18:01:32.893Z,26.80
2018-08-09T18:04:11.662Z,26.60
2018-08-09T18:06:46.608Z,26.40
2018-08-09T18:12:03.323Z,26.00
2018-08-09T18:14:31.995Z,25.80
2018-08-09T18:17:00.676Z,25.70
2018-08-09T18:19:29.494Z,25.50
2018-08-09T18:21:58.184Z,25.40
2018-08-09T18:24:26.830Z,25.30
2018-08-09T18:26:55.767Z,25.30
2018-08-09T18:29:24.441Z,25.20
2018-08-09T18:31:53.210Z,25.10
2018-08-09T18:34:22.086Z,25.00
2018-08-09T18:36:50.757Z,24.90
2018-08-09T18:39:19.381Z,24.90
2018-08-09T18:41:48.078Z,24.80
2018-08-09T18:44:16.791Z,24.70
2018-08-09T18:46:45.454Z,24.70
2018-08-09T18:49:14.169Z,24.60
2018-08-09T18:51:42.909Z,24.60
2018-08-09T18:54:11.627Z,24.50
2018-08-09T18:56:40.301Z,24.40
2018-08-09T18:59:09.613Z,24.40
2018-08-09T19:01:38.616Z,24.40
2018-08-09T19:04:07.522Z,24.40
2018-08-09T19:06:36.238Z,24.40
2018-08-09T19:09:07.788Z,24.30
2018-08-09T19:11:36.657Z,24.30
2018-08-09T19:14:05.404Z,24.30
2018-08-09T19:16:34.104Z,24.30
2018-08-09T19:19:02.777Z,24.20
2018-08-09T19:21:31.494Z,24.20
2018-08-09T19:24:00.285Z,24.10
2018-08-09T19:26:28.965Z,24.10
2018-08-09T19:28:57.639Z,24.10
2018-08-09T19:31:26.376Z,24.00
2018-08-09T19:33:55.048Z,23.90
2018-08-09T19:36:23.772Z,23.90
2018-08-09T19:38:52.515Z,23.80
2018-08-09T19:41:21.173Z,23.80
2018-08-09T19:43:49.847Z,23.80
2018-08-09T19:46:18.513Z,23.70
2018-08-09T19:48:47.161Z,23.70
2018-08-09T19:51:15.831Z,23.60
2018-08-09T19:53:44.622Z,23.60
2018-08-09T19:56:13.282Z,23.60
2018-08-09T19:58:41.954Z,23.50
2018-08-09T20:01:10.642Z,23.60
2018-08-09T20:03:39.253Z,23.50
2018-08-09T20:06:07.974Z,23.40
2018-08-09T20:08:36.647Z,23.30
2018-08-09T20:11:05.404Z,23.30
2018-08-09T20:13:34.073Z,23.20
2018-08-09T20:16:02.781Z,23.10
2018-08-09T20:18:31.460Z,23.10
2018-08-09T20:21:00.144Z,23.00
2018-08-09T20:23:28.782Z,23.00
2018-08-09T20:25:57.481Z,22.90
2018-08-09T20:28:26.154Z,22.90
2018-08-09T20:30:54.886Z,22.90
2018-08-09T20:33:23.590Z,22.90
2018-08-09T20:35:52.265Z,22.80
2018-08-09T20:38:20.914Z,22.80
2018-08-09T20:40:49.562Z,22.80
2018-08-09T20:43:18.305Z,22.80
2018-08-09T20:45:47.169Z,22.80
2018-08-09T20:48:15.796Z,22.80
2018-08-09T20:50:44.458Z,22.80
2018-08-09T20:53:13.236Z,22.90
2018-08-09T20:55:41.948Z,22.80
2018-08-09T20:58:10.721Z,22.80
2018-08-09T21:00:39.526Z,22.80
2018-08-09T21:03:08.267Z,22.80
2018-08-09T21:05:38.258Z,22.80
2018-08-09T21:08:07.151Z,22.80
2018-08-09T21:10:35.926Z,22.80
2018-08-09T21:13:04.623Z,22.70
2018-08-09T21:15:33.401Z,22.70
2018-08-09T21:18:02.046Z,22.80
2018-08-09T21:20:30.698Z,22.80
2018-08-09T21:22:59.410Z,22.80
2018-08-09T21:25:28.150Z,22.80
2018-08-09T21:27:56.838Z,22.80
2018-08-09T21:30:25.674Z,22.80
2018-08-09T21:33:01.188Z,22.80
2018-08-09T21:35:29.971Z,22.80
2018-08-09T21:37:58.630Z,22.80
2018-08-09T21:40:27.261Z,22.80
2018-08-09T21:42:56.049Z,22.70
2018-08-09T21:45:24.727Z,22.70
2018-08-09T21:47:53.385Z,22.70
2018-08-09T21:50:23.046Z,22.60
2018-08-09T21:52:51.720Z,22.60
2018-08-09T21:55:20.409Z,22.60
2018-08-09T21:57:49.097Z,22.60
2018-08-09T22:00:56.381Z,22.50
2018-08-09T22:03:26.865Z,22.60
2018-08-09T22:06:00.725Z,22.60
2018-08-09T22:08:34.766Z,22.50
2018-08-09T22:11:08.837Z,22.50
2018-08-09T22:13:42.754Z,22.40
2018-08-09T22:16:16.958Z,22.40
2018-08-09T22:18:50.863Z,22.30
2018-08-09T22:21:24.872Z,22.30
2018-08-09T22:23:53.651Z,22.20
2018-08-09T22:26:22.313Z,22.20
2018-08-09T22:28:50.986Z,22.10
2018-08-09T22:31:19.721Z,22.10
2018-08-09T22:33:48.393Z,22.10
2018-08-09T22:36:17.229Z,22.10
2018-08-09T22:38:45.925Z,22.00
2018-08-09T22:41:14.580Z,22.00
2018-08-09T22:43:43.390Z,22.00
2018-08-09T22:46:12.043Z,22.00
2018-08-09T22:48:40.708Z,21.90
2018-08-09T22:51:09.572Z,21.90
2018-08-09T22:53:38.249Z,21.90
2018-08-09T22:56:06.944Z,21.90
2018-08-09T22:58:35.926Z,21.90
2018-08-09T23:01:05.065Z,21.90
2018-08-09T23:03:33.733Z,21.90
2018-08-09T23:06:02.415Z,21.90
2018-08-09T23:08:31.045Z,21.90
2018-08-09T23:10:59.707Z,21.90
2018-08-09T23:13:28.381Z,21.90
2018-08-09T23:15:57.066Z,21.90
2018-08-09T23:18:25.745Z,21.90
2018-08-09T23:20:54.566Z,21.90
2018-08-09T23:23:23.204Z,21.80
2018-08-09T23:25:51.839Z,21.80
2018-08-09T23:28:20.853Z,21.80
2018-08-09T23:30:49.508Z,21.80
2018-08-09T23:33:21.726Z,21.80
2018-08-09T23:35:50.434Z,21.70
2018-08-09T23:38:19.146Z,21.70
2018-08-09T23:40:47.883Z,21.60
2018-08-09T23:43:16.545Z,21.60
2018-08-09T23:45:45.186Z,21.60
2018-08-09T23:48:13.930Z,21.50
2018-08-09T23:50:42.611Z,21.50
2018-08-09T23:53:11.257Z,21.40
2018-08-09T23:55:39.917Z,21.40
2018-08-09T23:58:08.630Z,21.40
